sensor_id;sensor_type;location;lat;lon;timestamp;pressure;altitude;pressure_sealevel;temperature;humidity
82178;BME280;71761;21.336;-157.724;2023-07-31T00:01:17;101449.08;;;29.61;46.67
82178;BME280;71761;21.336;-157.724;2023-07-31T00:03:42;101446.97;;;29.54;47.14
82178;BME280;71761;21.336;-157.724;2023-07-31T00:06:08;101447.45;;;29.94;45.89
82178;BME280;71761;21.336;-157.724;2023-07-31T00:08:33;101445.44;;;30.32;45.32
82178;BME280;71761;21.336;-157.724;2023-07-31T00:10:58;101444.02;;;29.88;45.00
82178;BME280;71761;21.336;-157.724;2023-07-31T00:13:23;101438.48;;;30.74;44.43
82178;BME280;71761;21.336;-157.724;2023-07-31T00:15:49;101438.76;;;29.39;46.59
82178;BME280;71761;21.336;-157.724;2023-07-31T00:18:14;101442.22;;;29.37;47.47
82178;BME280;71761;21.336;-157.724;2023-07-31T00:20:40;101429.03;;;29.82;46.75
82178;BME280;71761;21.336;-157.724;2023-07-31T00:23:05;101429.56;;;30.76;45.09
82178;BME280;71761;21.336;-157.724;2023-07-31T00:25:30;101425.76;;;31.61;44.05
82178;BME280;71761;21.336;-157.724;2023-07-31T00:27:56;101429.69;;;30.11;46.45
82178;BME280;71761;21.336;-157.724;2023-07-31T00:30:22;101428.07;;;30.32;45.79
82178;BME280;71761;21.336;-157.724;2023-07-31T00:32:46;101425.82;;;30.43;45.57
82178;BME280;71761;21.336;-157.724;2023-07-31T00:35:11;101419.87;;;31.14;44.23
82178;BME280;71761;21.336;-157.724;2023-07-31T00:37:36;101416.51;;;31.53;44.01
82178;BME280;71761;21.336;-157.724;2023-07-31T00:40:02;101421.22;;;30.62;45.12
82178;BME280;71761;21.336;-157.724;2023-07-31T00:42:27;101416.64;;;30.79;45.48
82178;BME280;71761;21.336;-157.724;2023-07-31T00:44:53;101415.37;;;30.50;45.45
82178;BME280;71761;21.336;-157.724;2023-07-31T00:47:18;101414.84;;;30.56;45.27
82178;BME280;71761;21.336;-157.724;2023-07-31T00:49:44;101412.42;;;30.95;44.98
82178;BME280;71761;21.336;-157.724;2023-07-31T00:52:10;101408.53;;;31.13;44.87
82178;BME280;71761;21.336;-157.724;2023-07-31T00:54:34;101408.23;;;30.07;46.39
82178;BME280;71761;21.336;-157.724;2023-07-31T00:57:01;101402.61;;;30.07;46.25
82178;BME280;71761;21.336;-157.724;2023-07-31T00:59:25;101401.46;;;31.26;44.58
82178;BME280;71761;21.336;-157.724;2023-07-31T01:01:51;101406.60;;;30.79;45.27
82178;BME280;71761;21.336;-157.724;2023-07-31T01:04:16;101408.09;;;30.12;46.18
82178;BME280;71761;21.336;-157.724;2023-07-31T01:06:47;101408.00;;;30.96;45.24
82178;BME280;71761;21.336;-157.724;2023-07-31T01:09:10;101404.84;;;30.83;45.71
82178;BME280;71761;21.336;-157.724;2023-07-31T01:11:34;101402.12;;;31.23;45.12
82178;BME280;71761;21.336;-157.724;2023-07-31T01:13:59;101400.33;;;31.07;45.60
82178;BME280;71761;21.336;-157.724;2023-07-31T01:16:24;101400.24;;;29.98;47.77
82178;BME280;71761;21.336;-157.724;2023-07-31T01:18:47;101400.73;;;29.94;47.57
82178;BME280;71761;21.336;-157.724;2023-07-31T01:21:23;101397.64;;;29.76;47.30
82178;BME280;71761;21.336;-157.724;2023-07-31T01:26:09;101391.43;;;31.11;45.02
82178;BME280;71761;21.336;-157.724;2023-07-31T01:28:35;101393.70;;;29.53;47.15
82178;BME280;71761;21.336;-157.724;2023-07-31T01:30:55;101390.56;;;29.28;48.49
82178;BME280;71761;21.336;-157.724;2023-07-31T01:33:20;101387.74;;;30.49;45.71
82178;BME280;71761;21.336;-157.724;2023-07-31T01:35:46;101390.56;;;30.91;45.16
82178;BME280;71761;21.336;-157.724;2023-07-31T01:38:10;101392.29;;;29.75;47.61
82178;BME280;71761;21.336;-157.724;2023-07-31T01:40:36;101392.57;;;29.89;47.31
82178;BME280;71761;21.336;-157.724;2023-07-31T01:43:01;101388.78;;;29.37;47.80
82178;BME280;71761;21.336;-157.724;2023-07-31T01:45:27;101384.59;;;29.31;47.93
82178;BME280;71761;21.336;-157.724;2023-07-31T01:47:52;101381.42;;;29.66;47.84
82178;BME280;71761;21.336;-157.724;2023-07-31T01:50:17;101380.72;;;30.08;46.96
82178;BME280;71761;21.336;-157.724;2023-07-31T01:52:43;101373.91;;;30.23;47.08
82178;BME280;71761;21.336;-157.724;2023-07-31T01:55:08;101369.51;;;29.70;48.02
82178;BME280;71761;21.336;-157.724;2023-07-31T01:57:34;101374.14;;;29.06;49.45
82178;BME280;71761;21.336;-157.724;2023-07-31T01:59:59;101373.81;;;29.18;48.76
82178;BME280;71761;21.336;-157.724;2023-07-31T02:02:24;101373.51;;;29.83;47.93
82178;BME280;71761;21.336;-157.724;2023-07-31T02:04:50;101375.27;;;29.17;49.06
82178;BME280;71761;21.336;-157.724;2023-07-31T02:07:15;101369.67;;;29.34;49.34
82178;BME280;71761;21.336;-157.724;2023-07-31T02:09:40;101365.32;;;29.03;50.80
82178;BME280;71761;21.336;-157.724;2023-07-31T02:12:07;101361.16;;;29.68;48.31
82178;BME280;71761;21.336;-157.724;2023-07-31T02:14:31;101365.31;;;28.70;49.47
82178;BME280;71761;21.336;-157.724;2023-07-31T02:16:57;101363.99;;;29.86;47.83
82178;BME280;71761;21.336;-157.724;2023-07-31T02:19:22;101368.07;;;30.14;47.45
82178;BME280;71761;21.336;-157.724;2023-07-31T02:21:47;101360.15;;;30.41;47.02
82178;BME280;71761;21.336;-157.724;2023-07-31T02:24:14;101360.25;;;29.96;47.25
82178;BME280;71761;21.336;-157.724;2023-07-31T02:26:38;101355.84;;;29.63;48.08
82178;BME280;71761;21.336;-157.724;2023-07-31T02:29:04;101355.91;;;29.81;47.15
82178;BME280;71761;21.336;-157.724;2023-07-31T02:31:29;101358.70;;;30.07;47.37
82178;BME280;71761;21.336;-157.724;2023-07-31T02:33:54;101358.32;;;29.92;46.24
82178;BME280;71761;21.336;-157.724;2023-07-31T02:36:20;101362.12;;;30.16;46.57
82178;BME280;71761;21.336;-157.724;2023-07-31T02:38:45;101361.08;;;30.36;46.28
82178;BME280;71761;21.336;-157.724;2023-07-31T02:41:11;101360.42;;;30.16;46.13
82178;BME280;71761;21.336;-157.724;2023-07-31T02:43:36;101355.38;;;29.98;47.02
82178;BME280;71761;21.336;-157.724;2023-07-31T02:46:02;101354.88;;;29.28;48.82
82178;BME280;71761;21.336;-157.724;2023-07-31T02:48:27;101354.54;;;30.57;45.99
82178;BME280;71761;21.336;-157.724;2023-07-31T02:50:54;101358.53;;;28.84;48.79
82178;BME280;71761;21.336;-157.724;2023-07-31T02:53:18;101356.37;;;28.75;49.34
82178;BME280;71761;21.336;-157.724;2023-07-31T02:55:43;101361.51;;;29.61;48.02
82178;BME280;71761;21.336;-157.724;2023-07-31T02:58:09;101367.05;;;28.92;48.76
82178;BME280;71761;21.336;-157.724;2023-07-31T03:00:34;101363.29;;;29.12;48.61
82178;BME280;71761;21.336;-157.724;2023-07-31T03:03:00;101362.97;;;28.10;49.37
82178;BME280;71761;21.336;-157.724;2023-07-31T03:05:25;101363.14;;;27.77;50.60
82178;BME280;71761;21.336;-157.724;2023-07-31T03:07:50;101364.76;;;28.77;50.10
82178;BME280;71761;21.336;-157.724;2023-07-31T03:10:16;101363.30;;;29.10;48.40
82178;BME280;71761;21.336;-157.724;2023-07-31T03:12:41;101361.52;;;29.64;48.09
82178;BME280;71761;21.336;-157.724;2023-07-31T03:15:07;101360.08;;;29.65;47.54
82178;BME280;71761;21.336;-157.724;2023-07-31T03:17:32;101363.05;;;29.10;48.96
82178;BME280;71761;21.336;-157.724;2023-07-31T03:19:57;101365.55;;;28.90;49.93
82178;BME280;71761;21.336;-157.724;2023-07-31T03:22:22;101367.91;;;29.07;49.07
82178;BME280;71761;21.336;-157.724;2023-07-31T03:24:48;101369.22;;;28.75;49.87
82178;BME280;71761;21.336;-157.724;2023-07-31T03:27:13;101373.09;;;29.40;47.83
82178;BME280;71761;21.336;-157.724;2023-07-31T03:29:39;101373.50;;;29.92;47.25
82178;BME280;71761;21.336;-157.724;2023-07-31T03:32:05;101368.08;;;29.52;47.79
82178;BME280;71761;21.336;-157.724;2023-07-31T03:34:30;101366.02;;;28.60;49.59
82178;BME280;71761;21.336;-157.724;2023-07-31T03:36:55;101367.12;;;29.07;49.93
82178;BME280;71761;21.336;-157.724;2023-07-31T03:39:20;101367.34;;;29.88;48.25
82178;BME280;71761;21.336;-157.724;2023-07-31T03:41:46;101373.65;;;30.05;48.05
82178;BME280;71761;21.336;-157.724;2023-07-31T03:44:11;101377.19;;;30.00;48.29
82178;BME280;71761;21.336;-157.724;2023-07-31T03:46:37;101379.41;;;29.69;48.86
82178;BME280;71761;21.336;-157.724;2023-07-31T03:49:02;101377.50;;;29.80;48.24
82178;BME280;71761;21.336;-157.724;2023-07-31T03:51:27;101371.10;;;29.50;48.30
82178;BME280;71761;21.336;-157.724;2023-07-31T03:53:53;101374.61;;;29.38;48.25
82178;BME280;71761;21.336;-157.724;2023-07-31T03:56:18;101375.35;;;29.14;48.64
82178;BME280;71761;21.336;-157.724;2023-07-31T03:58:43;101375.07;;;29.36;48.05
82178;BME280;71761;21.336;-157.724;2023-07-31T04:01:09;101372.17;;;29.55;48.19
82178;BME280;71761;21.336;-157.724;2023-07-31T04:03:34;101378.02;;;29.62;48.45
82178;BME280;71761;21.336;-157.724;2023-07-31T04:06:00;101383.49;;;29.56;48.51
82178;BME280;71761;21.336;-157.724;2023-07-31T04:08:25;101384.67;;;29.96;47.74
82178;BME280;71761;21.336;-157.724;2023-07-31T04:10:51;101386.07;;;29.62;48.79
82178;BME280;71761;21.336;-157.724;2023-07-31T04:13:16;101385.67;;;29.71;48.33
82178;BME280;71761;21.336;-157.724;2023-07-31T04:15:42;101387.38;;;30.05;47.94
82178;BME280;71761;21.336;-157.724;2023-07-31T04:18:08;101387.93;;;28.86;49.71
82178;BME280;71761;21.336;-157.724;2023-07-31T04:20:32;101388.37;;;29.78;47.92
82178;BME280;71761;21.336;-157.724;2023-07-31T04:22:58;101395.42;;;29.77;47.54
82178;BME280;71761;21.336;-157.724;2023-07-31T04:25:23;101400.62;;;29.40;48.46
82178;BME280;71761;21.336;-157.724;2023-07-31T04:27:48;101400.46;;;29.68;47.82
82178;BME280;71761;21.336;-157.724;2023-07-31T04:30:15;101406.14;;;29.53;48.02
82178;BME280;71761;21.336;-157.724;2023-07-31T04:32:40;101407.24;;;29.29;47.98
82178;BME280;71761;21.336;-157.724;2023-07-31T04:35:05;101407.56;;;29.36;48.05
82178;BME280;71761;21.336;-157.724;2023-07-31T04:37:30;101415.71;;;29.21;48.37
82178;BME280;71761;21.336;-157.724;2023-07-31T04:39:56;101417.81;;;29.87;47.86
82178;BME280;71761;21.336;-157.724;2023-07-31T04:42:21;101416.34;;;29.27;48.47
82178;BME280;71761;21.336;-157.724;2023-07-31T04:44:47;101419.59;;;29.18;48.65
82178;BME280;71761;21.336;-157.724;2023-07-31T04:47:12;101419.95;;;29.71;47.83
82178;BME280;71761;21.336;-157.724;2023-07-31T04:49:37;101421.52;;;29.48;48.33
82178;BME280;71761;21.336;-157.724;2023-07-31T04:52:04;101424.11;;;29.54;47.86
82178;BME280;71761;21.336;-157.724;2023-07-31T04:54:28;101430.74;;;29.25;48.28
82178;BME280;71761;21.336;-157.724;2023-07-31T04:56:54;101426.75;;;29.54;47.95
82178;BME280;71761;21.336;-157.724;2023-07-31T04:59:19;101426.47;;;28.88;49.32
82178;BME280;71761;21.336;-157.724;2023-07-31T05:01:45;101431.21;;;29.12;48.76
82178;BME280;71761;21.336;-157.724;2023-07-31T05:04:12;101442.37;;;28.64;49.91
82178;BME280;71761;21.336;-157.724;2023-07-31T05:06:35;101441.45;;;29.42;48.25
82178;BME280;71761;21.336;-157.724;2023-07-31T05:09:01;101447.58;;;29.32;48.83
82178;BME280;71761;21.336;-157.724;2023-07-31T05:11:26;101444.64;;;29.11;48.75
82178;BME280;71761;21.336;-157.724;2023-07-31T05:13:52;101447.31;;;29.17;48.86
82178;BME280;71761;21.336;-157.724;2023-07-31T05:16:17;101447.28;;;28.27;49.67
82178;BME280;71761;21.336;-157.724;2023-07-31T05:18:42;101449.75;;;28.50;49.67
82178;BME280;71761;21.336;-157.724;2023-07-31T05:21:08;101454.30;;;29.21;48.86
82178;BME280;71761;21.336;-157.724;2023-07-31T05:23:34;101461.06;;;28.69;49.22
82178;BME280;71761;21.336;-157.724;2023-07-31T05:26:03;101465.52;;;28.61;49.36
82178;BME280;71761;21.336;-157.724;2023-07-31T05:28:24;101469.07;;;29.48;48.78
82178;BME280;71761;21.336;-157.724;2023-07-31T05:30:49;101462.13;;;29.24;49.02
82178;BME280;71761;21.336;-157.724;2023-07-31T05:33:15;101467.49;;;28.66;50.02
82178;BME280;71761;21.336;-157.724;2023-07-31T05:35:40;101463.46;;;28.99;49.78
82178;BME280;71761;21.336;-157.724;2023-07-31T05:38:06;101467.19;;;28.57;49.84
82178;BME280;71761;21.336;-157.724;2023-07-31T05:40:33;101467.86;;;29.02;49.19
82178;BME280;71761;21.336;-157.724;2023-07-31T05:42:56;101470.92;;;29.08;49.53
82178;BME280;71761;21.336;-157.724;2023-07-31T05:45:22;101472.06;;;29.05;49.24
82178;BME280;71761;21.336;-157.724;2023-07-31T05:47:47;101468.70;;;29.14;49.19
82178;BME280;71761;21.336;-157.724;2023-07-31T05:50:12;101471.21;;;29.59;48.29
82178;BME280;71761;21.336;-157.724;2023-07-31T05:52:38;101481.73;;;29.40;48.70
82178;BME280;71761;21.336;-157.724;2023-07-31T05:55:03;101481.21;;;29.64;48.30
82178;BME280;71761;21.336;-157.724;2023-07-31T05:57:29;101483.98;;;29.41;48.68
82178;BME280;71761;21.336;-157.724;2023-07-31T05:59:53;101484.88;;;29.03;49.23
82178;BME280;71761;21.336;-157.724;2023-07-31T06:02:19;101492.00;;;29.12;49.82
82178;BME280;71761;21.336;-157.724;2023-07-31T06:04:44;101484.47;;;28.85;50.24
82178;BME280;71761;21.336;-157.724;2023-07-31T06:07:09;101499.15;;;29.04;49.69
82178;BME280;71761;21.336;-157.724;2023-07-31T06:09:35;101500.65;;;28.99;49.15
82178;BME280;71761;21.336;-157.724;2023-07-31T06:12:00;101497.14;;;29.01;49.44
82178;BME280;71761;21.336;-157.724;2023-07-31T06:14:26;101497.01;;;28.89;50.02
82178;BME280;71761;21.336;-157.724;2023-07-31T06:16:51;101495.83;;;28.49;49.70
82178;BME280;71761;21.336;-157.724;2023-07-31T06:19:18;101496.34;;;28.29;50.09
82178;BME280;71761;21.336;-157.724;2023-07-31T06:21:42;101491.94;;;28.68;49.44
82178;BME280;71761;21.336;-157.724;2023-07-31T06:24:08;101494.59;;;28.44;50.29
82178;BME280;71761;21.336;-157.724;2023-07-31T06:26:33;101494.35;;;28.67;50.27
82178;BME280;71761;21.336;-157.724;2023-07-31T06:28:58;101496.80;;;28.91;49.98
82178;BME280;71761;21.336;-157.724;2023-07-31T06:31:24;101494.84;;;28.93;50.05
82178;BME280;71761;21.336;-157.724;2023-07-31T06:33:49;101498.19;;;28.93;49.67
82178;BME280;71761;21.336;-157.724;2023-07-31T06:36:14;101500.16;;;28.65;49.76
82178;BME280;71761;21.336;-157.724;2023-07-31T06:38:40;101501.42;;;28.77;49.52
82178;BME280;71761;21.336;-157.724;2023-07-31T06:41:05;101502.77;;;28.53;49.79
82178;BME280;71761;21.336;-157.724;2023-07-31T06:43:30;101505.49;;;28.81;50.07
82178;BME280;71761;21.336;-157.724;2023-07-31T06:45:56;101509.93;;;27.96;51.13
82178;BME280;71761;21.336;-157.724;2023-07-31T06:48:21;101507.72;;;28.78;50.14
82178;BME280;71761;21.336;-157.724;2023-07-31T06:50:47;101507.25;;;28.41;50.84
82178;BME280;71761;21.336;-157.724;2023-07-31T06:53:12;101513.96;;;28.29;50.98
82178;BME280;71761;21.336;-157.724;2023-07-31T06:55:38;101512.49;;;28.72;50.19
82178;BME280;71761;21.336;-157.724;2023-07-31T06:58:03;101518.29;;;28.69;50.31
82178;BME280;71761;21.336;-157.724;2023-07-31T07:00:28;101520.42;;;28.80;50.19
82178;BME280;71761;21.336;-157.724;2023-07-31T07:02:53;101530.23;;;28.54;50.25
82178;BME280;71761;21.336;-157.724;2023-07-31T07:05:19;101528.64;;;28.18;51.21
82178;BME280;71761;21.336;-157.724;2023-07-31T07:07:44;101524.17;;;28.73;50.16
82178;BME280;71761;21.336;-157.724;2023-07-31T07:10:10;101536.10;;;28.89;49.76
82178;BME280;71761;21.336;-157.724;2023-07-31T07:12:34;101538.80;;;29.00;49.44
82178;BME280;71761;21.336;-157.724;2023-07-31T07:15:00;101546.87;;;28.59;49.36
82178;BME280;71761;21.336;-157.724;2023-07-31T07:17:26;101547.13;;;28.44;49.66
82178;BME280;71761;21.336;-157.724;2023-07-31T07:19:51;101553.99;;;27.95;50.41
82178;BME280;71761;21.336;-157.724;2023-07-31T07:22:16;101556.44;;;27.67;50.39
82178;BME280;71761;21.336;-157.724;2023-07-31T07:24:42;101555.70;;;28.10;49.63
82178;BME280;71761;21.336;-157.724;2023-07-31T07:27:07;101561.07;;;27.83;49.75
82178;BME280;71761;21.336;-157.724;2023-07-31T07:29:33;101565.41;;;27.96;49.67
82178;BME280;71761;21.336;-157.724;2023-07-31T07:31:57;101562.45;;;27.87;49.50
82178;BME280;71761;21.336;-157.724;2023-07-31T07:34:25;101560.90;;;28.32;49.13
82178;BME280;71761;21.336;-157.724;2023-07-31T07:36:48;101570.33;;;28.31;49.13
82178;BME280;71761;21.336;-157.724;2023-07-31T07:39:13;101570.08;;;28.29;49.21
82178;BME280;71761;21.336;-157.724;2023-07-31T07:41:39;101569.49;;;27.89;49.74
82178;BME280;71761;21.336;-157.724;2023-07-31T07:44:04;101573.51;;;28.33;49.10
82178;BME280;71761;21.336;-157.724;2023-07-31T07:46:30;101569.61;;;28.61;48.57
82178;BME280;71761;21.336;-157.724;2023-07-31T07:48:55;101580.91;;;27.64;50.02
82178;BME280;71761;21.336;-157.724;2023-07-31T07:51:20;101581.30;;;27.65;49.79
82178;BME280;71761;21.336;-157.724;2023-07-31T07:53:46;101582.66;;;27.93;49.50
82178;BME280;71761;21.336;-157.724;2023-07-31T07:56:11;101581.85;;;28.31;49.28
82178;BME280;71761;21.336;-157.724;2023-07-31T07:58:36;101581.79;;;28.13;49.10
82178;BME280;71761;21.336;-157.724;2023-07-31T08:01:02;101583.93;;;27.76;49.67
82178;BME280;71761;21.336;-157.724;2023-07-31T08:03:27;101582.63;;;28.56;48.36
82178;BME280;71761;21.336;-157.724;2023-07-31T08:05:53;101590.50;;;27.99;49.23
82178;BME280;71761;21.336;-157.724;2023-07-31T08:08:18;101585.12;;;27.83;49.56
82178;BME280;71761;21.336;-157.724;2023-07-31T08:10:45;101588.58;;;28.07;49.19
82178;BME280;71761;21.336;-157.724;2023-07-31T08:13:10;101589.33;;;28.39;48.82
82178;BME280;71761;21.336;-157.724;2023-07-31T08:15:34;101591.02;;;28.57;48.60
82178;BME280;71761;21.336;-157.724;2023-07-31T08:17:59;101595.23;;;27.35;49.73
82178;BME280;71761;21.336;-157.724;2023-07-31T08:20:25;101590.02;;;28.20;49.18
82178;BME280;71761;21.336;-157.724;2023-07-31T08:22:50;101590.28;;;27.71;49.98
82178;BME280;71761;21.336;-157.724;2023-07-31T08:25:16;101594.89;;;27.57;50.28
82178;BME280;71761;21.336;-157.724;2023-07-31T08:27:44;101594.71;;;27.70;50.07
82178;BME280;71761;21.336;-157.724;2023-07-31T08:30:08;101600.20;;;27.63;50.28
82178;BME280;71761;21.336;-157.724;2023-07-31T08:32:32;101604.51;;;27.58;50.38
82178;BME280;71761;21.336;-157.724;2023-07-31T08:34:58;101601.20;;;27.83;50.39
82178;BME280;71761;21.336;-157.724;2023-07-31T08:37:23;101599.33;;;28.20;49.78
82178;BME280;71761;21.336;-157.724;2023-07-31T08:39:48;101594.14;;;28.60;48.69
82178;BME280;71761;21.336;-157.724;2023-07-31T08:42:14;101596.55;;;28.25;49.33
82178;BME280;71761;21.336;-157.724;2023-07-31T08:44:39;101598.43;;;28.04;49.75
82178;BME280;71761;21.336;-157.724;2023-07-31T08:47:05;101601.37;;;28.30;49.28
82178;BME280;71761;21.336;-157.724;2023-07-31T08:49:31;101600.89;;;28.30;49.26
82178;BME280;71761;21.336;-157.724;2023-07-31T08:51:56;101606.76;;;27.94;49.76
82178;BME280;71761;21.336;-157.724;2023-07-31T08:54:21;101609.09;;;28.09;49.59
82178;BME280;71761;21.336;-157.724;2023-07-31T08:56:47;101606.61;;;27.85;50.74
82178;BME280;71761;21.336;-157.724;2023-07-31T08:59:12;101603.16;;;27.40;51.12
82178;BME280;71761;21.336;-157.724;2023-07-31T09:01:43;101601.47;;;28.04;50.01
82178;BME280;71761;21.336;-157.724;2023-07-31T09:04:05;101604.04;;;28.31;49.21
82178;BME280;71761;21.336;-157.724;2023-07-31T09:06:29;101604.75;;;27.70;50.20
82178;BME280;71761;21.336;-157.724;2023-07-31T09:08:53;101603.91;;;27.51;50.33
82178;BME280;71761;21.336;-157.724;2023-07-31T09:11:19;101600.76;;;28.21;49.64
82178;BME280;71761;21.336;-157.724;2023-07-31T09:13:46;101597.82;;;28.15;49.34
82178;BME280;71761;21.336;-157.724;2023-07-31T09:16:10;101588.86;;;28.37;48.89
82178;BME280;71761;21.336;-157.724;2023-07-31T09:21:04;101590.36;;;27.81;49.72
82178;BME280;71761;21.336;-157.724;2023-07-31T09:23:27;101585.13;;;28.37;48.90
82178;BME280;71761;21.336;-157.724;2023-07-31T09:25:52;101586.16;;;28.77;48.68
82178;BME280;71761;21.336;-157.724;2023-07-31T09:28:17;101580.78;;;28.98;48.00
82178;BME280;71761;21.336;-157.724;2023-07-31T09:30:47;101582.57;;;28.53;48.81
82178;BME280;71761;21.336;-157.724;2023-07-31T09:33:10;101577.33;;;28.79;48.35
82178;BME280;71761;21.336;-157.724;2023-07-31T09:35:35;101575.06;;;29.01;48.13
82178;BME280;71761;21.336;-157.724;2023-07-31T09:38:01;101580.48;;;27.83;49.75
82178;BME280;71761;21.336;-157.724;2023-07-31T09:40:29;101578.21;;;28.30;49.75
82178;BME280;71761;21.336;-157.724;2023-07-31T09:42:50;101575.24;;;28.46;49.01
82178;BME280;71761;21.336;-157.724;2023-07-31T09:45:15;101578.21;;;28.16;48.98
82178;BME280;71761;21.336;-157.724;2023-07-31T09:47:40;101579.33;;;28.22;49.09
82178;BME280;71761;21.336;-157.724;2023-07-31T09:50:09;101579.58;;;27.65;49.48
82178;BME280;71761;21.336;-157.724;2023-07-31T09:52:31;101578.87;;;28.43;48.43
82178;BME280;71761;21.336;-157.724;2023-07-31T09:54:56;101580.14;;;27.64;49.91
82178;BME280;71761;21.336;-157.724;2023-07-31T09:57:23;101580.31;;;27.80;49.78
82178;BME280;71761;21.336;-157.724;2023-07-31T09:59:48;101580.72;;;27.31;50.25
82178;BME280;71761;21.336;-157.724;2023-07-31T10:02:21;101575.56;;;28.39;48.31
82178;BME280;71761;21.336;-157.724;2023-07-31T10:04:39;101572.14;;;28.16;48.84
82178;BME280;71761;21.336;-157.724;2023-07-31T10:07:05;101564.62;;;27.77;49.55
82178;BME280;71761;21.336;-157.724;2023-07-31T10:09:31;101559.26;;;27.87;50.05
82178;BME280;71761;21.336;-157.724;2023-07-31T10:11:59;101553.23;;;27.91;50.21
82178;BME280;71761;21.336;-157.724;2023-07-31T10:14:20;101555.92;;;27.77;50.03
82178;BME280;71761;21.336;-157.724;2023-07-31T10:16:45;101555.39;;;28.20;49.32
82178;BME280;71761;21.336;-157.724;2023-07-31T10:19:11;101550.93;;;28.60;48.86
82178;BME280;71761;21.336;-157.724;2023-07-31T10:21:36;101554.54;;;28.42;49.26
82178;BME280;71761;21.336;-157.724;2023-07-31T10:24:04;101562.58;;;28.07;50.05
82178;BME280;71761;21.336;-157.724;2023-07-31T10:26:27;101562.56;;;28.12;50.55
82178;BME280;71761;21.336;-157.724;2023-07-31T10:28:53;101561.21;;;26.66;51.47
82178;BME280;71761;21.336;-157.724;2023-07-31T10:31:17;101564.64;;;27.75;51.59
82178;BME280;71761;21.336;-157.724;2023-07-31T10:33:43;101567.36;;;27.26;51.55
82178;BME280;71761;21.336;-157.724;2023-07-31T10:36:14;101569.70;;;28.08;50.00
82178;BME280;71761;21.336;-157.724;2023-07-31T10:38:34;101558.22;;;27.58;51.35
82178;BME280;71761;21.336;-157.724;2023-07-31T10:41:08;101556.48;;;28.16;50.19
82178;BME280;71761;21.336;-157.724;2023-07-31T10:43:26;101558.04;;;28.07;49.90
82178;BME280;71761;21.336;-157.724;2023-07-31T10:45:50;101549.99;;;27.74;50.55
82178;BME280;71761;21.336;-157.724;2023-07-31T10:48:16;101550.53;;;27.66;50.63
82178;BME280;71761;21.336;-157.724;2023-07-31T10:50:49;101553.57;;;27.99;50.07
82178;BME280;71761;21.336;-157.724;2023-07-31T10:53:06;101551.84;;;27.70;50.78
82178;BME280;71761;21.336;-157.724;2023-07-31T10:55:33;101547.09;;;27.50;51.04
82178;BME280;71761;21.336;-157.724;2023-07-31T10:57:58;101541.72;;;27.90;50.48
82178;BME280;71761;21.336;-157.724;2023-07-31T11:00:25;101541.33;;;27.21;51.68
82178;BME280;71761;21.336;-157.724;2023-07-31T11:02:58;101541.40;;;27.71;50.77
82178;BME280;71761;21.336;-157.724;2023-07-31T11:05:13;101535.49;;;27.88;51.30
82178;BME280;71761;21.336;-157.724;2023-07-31T11:07:47;101528.83;;;28.45;49.93
82178;BME280;71761;21.336;-157.724;2023-07-31T11:10:05;101531.02;;;27.73;51.52
82178;BME280;71761;21.336;-157.724;2023-07-31T11:12:31;101529.82;;;27.78;50.67
82178;BME280;71761;21.336;-157.724;2023-07-31T11:14:56;101534.91;;;28.18;50.41
82178;BME280;71761;21.336;-157.724;2023-07-31T11:17:20;101534.54;;;27.60;51.55
82178;BME280;71761;21.336;-157.724;2023-07-31T11:19:45;101537.25;;;27.96;51.27
82178;BME280;71761;21.336;-157.724;2023-07-31T11:22:11;101536.33;;;27.60;51.45
82178;BME280;71761;21.336;-157.724;2023-07-31T11:24:37;101539.41;;;27.77;51.70
82178;BME280;71761;21.336;-157.724;2023-07-31T11:27:07;101534.67;;;27.42;51.37
82178;BME280;71761;21.336;-157.724;2023-07-31T11:29:28;101531.43;;;27.41;51.68
82178;BME280;71761;21.336;-157.724;2023-07-31T11:31:53;101530.82;;;27.96;50.76
82178;BME280;71761;21.336;-157.724;2023-07-31T11:34:18;101521.95;;;27.57;51.55
82178;BME280;71761;21.336;-157.724;2023-07-31T11:36:53;101521.30;;;28.06;51.43
82178;BME280;71761;21.336;-157.724;2023-07-31T11:39:10;101520.00;;;27.74;51.73
82178;BME280;71761;21.336;-157.724;2023-07-31T11:41:34;101522.10;;;28.11;51.17
82178;BME280;71761;21.336;-157.724;2023-07-31T11:44:01;101518.76;;;27.80;51.16
82178;BME280;71761;21.336;-157.724;2023-07-31T11:46:25;101520.82;;;27.66;51.65
82178;BME280;71761;21.336;-157.724;2023-07-31T11:48:50;101521.75;;;27.26;52.87
82178;BME280;71761;21.336;-157.724;2023-07-31T11:51:17;101516.76;;;27.60;52.28
82178;BME280;71761;21.336;-157.724;2023-07-31T11:53:44;101509.06;;;27.73;51.80
82178;BME280;71761;21.336;-157.724;2023-07-31T11:56:08;101508.39;;;27.23;51.85
82178;BME280;71761;21.336;-157.724;2023-07-31T11:58:32;101504.03;;;27.93;51.14
82178;BME280;71761;21.336;-157.724;2023-07-31T12:00:57;101503.31;;;27.64;51.59
82178;BME280;71761;21.336;-157.724;2023-07-31T12:03:22;101501.64;;;27.03;52.77
82178;BME280;71761;21.336;-157.724;2023-07-31T12:05:48;101493.47;;;28.16;50.77
82178;BME280;71761;21.336;-157.724;2023-07-31T12:08:13;101487.98;;;28.01;50.55
82178;BME280;71761;21.336;-157.724;2023-07-31T12:10:39;101488.66;;;28.02;50.48
82178;BME280;71761;21.336;-157.724;2023-07-31T12:13:06;101489.38;;;28.52;50.07
82178;BME280;71761;21.336;-157.724;2023-07-31T12:15:38;101489.83;;;27.99;50.94